createdAt,value
2019-02-24T00:00:08.695Z,102046.00
2019-02-24T00:02:44.259Z,102036.30
2019-02-24T00:05:17.110Z,102032.25
2019-02-24T00:07:50.893Z,102025.78
2019-02-24T00:10:24.622Z,102027.13
2019-02-24T00:12:56.798Z,102027.40
2019-02-24T00:15:29.927Z,102032.00
2019-02-24T00:18:04.121Z,102031.44
2019-02-24T00:20:37.510Z,102030.61
2019-02-24T00:23:10.486Z,102031.16
2019-02-24T00:25:44.465Z,102036.29
2019-02-24T00:28:17.887Z,102034.14
2019-02-24T00:30:51.499Z,102034.41
2019-02-24T00:33:24.220Z,102029.56
2019-02-24T00:35:57.298Z,102031.97
2019-02-24T00:38:30.903Z,102037.33
2019-02-24T00:41:04.532Z,102036.22
2019-02-24T00:43:39.547Z,102038.11
2019-02-24T00:46:13.851Z,102038.66
2019-02-24T00:48:47.298Z,102036.27
2019-02-24T00:51:20.610Z,102034.09
2019-02-24T00:53:54.057Z,102035.13
2019-02-24T00:56:27.091Z,102033.72
2019-02-24T00:59:00.181Z,102040.68
2019-02-24T01:01:34.422Z,102041.43
2019-02-24T01:04:07.632Z,102043.02
2019-02-24T01:06:40.911Z,102046.52
2019-02-24T01:09:13.126Z,102050.83
2019-02-24T01:11:46.937Z,102050.06
2019-02-24T01:14:19.604Z,102045.83
2019-02-24T01:16:53.092Z,102050.69
2019-02-24T01:19:26.379Z,102054.72
2019-02-24T01:22:00.124Z,102054.95
2019-02-24T01:24:33.723Z,102050.64
2019-02-24T01:27:06.749Z,102044.16
2019-02-24T01:29:40.278Z,102046.03
2019-02-24T01:32:13.653Z,102044.42
2019-02-24T01:34:47.143Z,102042.53
2019-02-24T01:37:20.710Z,102038.77
2019-02-24T01:39:53.716Z,102035.77
2019-02-24T01:42:26.710Z,102025.30
2019-02-24T01:45:02.580Z,102024.22
2019-02-24T01:47:36.079Z,102025.08
2019-02-24T01:50:09.606Z,102021.05
2019-02-24T01:52:42.645Z,102023.99
2019-02-24T01:55:15.253Z,102024.53
2019-02-24T01:57:48.358Z,102021.03
2019-02-24T02:00:22.752Z,102020.19
2019-02-24T02:02:56.696Z,102014.27
2019-02-24T02:05:30.251Z,102017.24
2019-02-24T02:08:03.625Z,102015.32
2019-02-24T02:10:36.644Z,102018.28
2019-02-24T02:13:09.620Z,102015.86
2019-02-24T02:15:42.652Z,102014.78
2019-02-24T02:18:15.925Z,102018.25
2019-02-24T02:20:49.356Z,102026.31
2019-02-24T02:23:21.908Z,102029.53
2019-02-24T02:25:54.668Z,102024.41
2019-02-24T02:28:28.283Z,102015.53
2019-02-24T02:31:01.949Z,102013.32
2019-02-24T02:33:36.784Z,102008.23
2019-02-24T02:36:10.151Z,102012.50
2019-02-24T02:38:43.176Z,102007.62
2019-02-24T02:41:16.176Z,102001.20
2019-02-24T02:43:49.311Z,101995.56
2019-02-24T02:46:21.941Z,101998.50
2019-02-24T02:48:55.052Z,102001.13
2019-02-24T02:51:28.453Z,102004.38
2019-02-24T02:54:01.221Z,102006.77
2019-02-24T02:56:34.215Z,102005.61
2019-02-24T02:59:08.197Z,102005.87
2019-02-24T03:01:40.792Z,101998.13
2019-02-24T03:04:13.782Z,102005.08
2019-02-24T03:07:21.083Z,102006.72
2019-02-24T03:09:54.063Z,102009.40
2019-02-24T03:12:27.548Z,102006.10
2019-02-24T03:15:00.921Z,102005.05
2019-02-24T03:17:33.552Z,102005.87
2019-02-24T03:20:06.859Z,101993.23
2019-02-24T03:22:39.605Z,101992.67
2019-02-24T03:25:14.387Z,101996.97
2019-02-24T03:27:47.543Z,101991.28
2019-02-24T03:30:20.938Z,102005.48
2019-02-24T03:32:54.146Z,101997.70
2019-02-24T03:35:27.176Z,101994.45
2019-02-24T03:38:02.129Z,101995.30
2019-02-24T03:40:34.768Z,101993.97
2019-02-24T03:43:07.360Z,102000.64
2019-02-24T03:45:40.931Z,101996.00
2019-02-24T03:48:13.525Z,101999.04
2019-02-24T03:50:46.453Z,101997.62
2019-02-24T03:53:21.416Z,101995.12
2019-02-24T03:55:55.206Z,101994.16
2019-02-24T03:58:28.724Z,101996.00
2019-02-24T04:01:01.805Z,102000.52
2019-02-24T04:03:35.068Z,102005.52
2019-02-24T04:06:08.394Z,102012.52
2019-02-24T04:08:41.809Z,102020.71
2019-02-24T04:11:15.293Z,102022.17
2019-02-24T04:13:48.663Z,102023.48
2019-02-24T04:16:22.036Z,102026.58
2019-02-24T04:18:54.654Z,102031.38
2019-02-24T04:21:27.667Z,102030.56
2019-02-24T04:24:00.366Z,102029.45
2019-02-24T04:26:33.301Z,102029.40
2019-02-24T04:29:05.795Z,102013.46
2019-02-24T04:31:38.472Z,102004.89
2019-02-24T04:34:11.974Z,102002.20
2019-02-24T04:36:45.792Z,102000.60
2019-02-24T04:39:19.722Z,101993.86
2019-02-24T04:41:52.807Z,101990.59
2019-02-24T04:44:25.765Z,101991.85
2019-02-24T04:46:59.389Z,101986.23
2019-02-24T04:49:33.280Z,101992.71
2019-02-24T04:52:06.902Z,101998.38
2019-02-24T04:54:39.445Z,101993.30
2019-02-24T04:57:13.182Z,101993.86
2019-02-24T04:59:47.072Z,101988.49
2019-02-24T05:02:19.639Z,101990.39
2019-02-24T05:04:53.045Z,101987.75
2019-02-24T05:07:26.036Z,101992.55
2019-02-24T05:09:59.740Z,101990.36
2019-02-24T05:12:32.765Z,101993.38
2019-02-24T05:15:05.807Z,101987.45
2019-02-24T05:17:39.430Z,101989.77
2019-02-24T05:20:12.410Z,101992.70
2019-02-24T05:22:45.715Z,101997.48
2019-02-24T05:25:18.684Z,101998.59
2019-02-24T05:27:51.259Z,101997.25
2019-02-24T05:30:24.542Z,102001.84
2019-02-24T05:32:58.064Z,102005.04
2019-02-24T05:35:30.772Z,102004.22
2019-02-24T05:38:03.925Z,102001.23
2019-02-24T05:40:36.921Z,101996.99
2019-02-24T05:43:09.123Z,102004.88
2019-02-24T05:45:41.363Z,102007.17
2019-02-24T05:48:16.074Z,102006.22
2019-02-24T05:50:48.794Z,102010.59
2019-02-24T05:53:22.583Z,102009.41
2019-02-24T05:55:56.061Z,102014.86
2019-02-24T05:58:29.127Z,102019.89
2019-02-24T06:01:02.665Z,102025.17
2019-02-24T06:03:35.946Z,102033.20
2019-02-24T06:06:09.344Z,102038.72
2019-02-24T06:08:42.796Z,102048.23
2019-02-24T06:11:16.551Z,102053.13
2019-02-24T06:13:49.130Z,102041.06
2019-02-24T06:16:22.153Z,102043.45
2019-02-24T06:18:56.012Z,102042.42
2019-02-24T06:21:28.945Z,102044.47
2019-02-24T06:24:02.314Z,102038.22
2019-02-24T06:26:35.209Z,102040.60
2019-02-24T06:29:08.461Z,102039.18
2019-02-24T06:31:42.338Z,102038.35
2019-02-24T06:34:15.373Z,102033.08
2019-02-24T06:36:48.481Z,102031.48
2019-02-24T06:39:21.462Z,102030.93
2019-02-24T06:41:54.053Z,102038.87
2019-02-24T06:44:27.560Z,102036.27
2019-02-24T06:47:00.558Z,102039.30
2019-02-24T06:49:34.019Z,102040.94
2019-02-24T06:52:07.610Z,102044.10
2019-02-24T06:54:42.811Z,102048.08
2019-02-24T06:57:15.744Z,102050.41
2019-02-24T06:59:48.324Z,102053.36
2019-02-24T07:02:21.596Z,102053.89
2019-02-24T07:04:54.305Z,102053.45
2019-02-24T07:07:28.019Z,102049.42
2019-02-24T07:10:02.147Z,102051.77
2019-02-24T07:12:36.139Z,102052.56
2019-02-24T07:15:09.730Z,102041.34
2019-02-24T07:17:42.805Z,102035.95
2019-02-24T07:20:16.172Z,102028.12
2019-02-24T07:22:49.483Z,102033.83
2019-02-24T07:25:22.922Z,102025.19
2019-02-24T07:27:56.006Z,102029.97
2019-02-24T07:30:29.066Z,102029.14
2019-02-24T07:33:02.607Z,102029.69
2019-02-24T07:35:35.396Z,102027.53
2019-02-24T07:38:08.514Z,102028.88
2019-02-24T07:40:41.932Z,102031.82
2019-02-24T07:43:15.538Z,102031.10
2019-02-24T07:45:48.688Z,102040.81
2019-02-24T07:48:22.094Z,102043.80
2019-02-24T07:50:56.593Z,102048.92
2019-02-24T07:53:30.444Z,102069.19
2019-02-24T07:56:03.506Z,102076.52
2019-02-24T07:58:36.635Z,102081.92
2019-02-24T08:01:09.969Z,102084.57
2019-02-24T08:03:43.954Z,102092.69
2019-02-24T08:06:17.377Z,102088.67
2019-02-24T08:08:50.474Z,102085.42
2019-02-24T08:11:24.437Z,102082.19
2019-02-24T08:14:00.867Z,102079.76
2019-02-24T08:16:34.717Z,102073.32
2019-02-24T08:19:09.196Z,102073.31
2019-02-24T08:21:43.130Z,102070.63
2019-02-24T08:24:16.048Z,102077.61
2019-02-24T08:26:49.408Z,102080.58
2019-02-24T08:29:22.734Z,102079.76
2019-02-24T08:31:56.159Z,102078.70
2019-02-24T08:34:29.325Z,102082.69
2019-02-24T08:37:02.759Z,102091.31
2019-02-24T08:39:36.454Z,102087.59
2019-02-24T08:42:10.382Z,102078.95
2019-02-24T08:44:44.350Z,102081.36
2019-02-24T08:47:17.665Z,102088.36
2019-02-24T08:49:51.590Z,102086.66
2019-02-24T08:52:23.910Z,102087.98
2019-02-24T08:54:57.390Z,102089.28
2019-02-24T08:57:30.873Z,102087.64
2019-02-24T09:00:05.202Z,102095.18
2019-02-24T09:02:40.923Z,102098.41
2019-02-24T09:05:14.829Z,102097.87
2019-02-24T09:07:47.801Z,102092.66
2019-02-24T09:10:20.530Z,102094.14
2019-02-24T09:12:53.894Z,102093.12
2019-02-24T09:15:27.301Z,102091.63
2019-02-24T09:18:00.822Z,102097.60
2019-02-24T09:20:34.598Z,102095.27
2019-02-24T09:23:07.182Z,102094.56
2019-02-24T09:25:41.304Z,102103.04
2019-02-24T09:28:14.263Z,102098.33
2019-02-24T09:30:47.378Z,102099.83
2019-02-24T09:33:21.586Z,102097.73
2019-02-24T09:35:55.079Z,102104.11
2019-02-24T09:38:28.953Z,102097.95
2019-02-24T09:41:02.525Z,102096.17
2019-02-24T09:43:36.231Z,102098.42
2019-02-24T09:46:09.287Z,102090.30
2019-02-24T09:48:42.027Z,102086.30
2019-02-24T09:51:15.473Z,102089.16
2019-02-24T09:53:48.685Z,102091.52
2019-02-24T09:56:21.730Z,102088.10
2019-02-24T09:58:55.028Z,102085.50
2019-02-24T10:01:34.916Z,102087.48
2019-02-24T10:04:08.460Z,102084.88
2019-02-24T10:06:41.995Z,102088.41
2019-02-24T10:09:17.233Z,102092.26
2019-02-24T10:11:49.997Z,102091.39
2019-02-24T10:14:23.410Z,102092.23
2019-02-24T10:16:57.070Z,102088.83
2019-02-24T10:19:31.260Z,102091.67
2019-02-24T10:22:05.800Z,102088.53
2019-02-24T10:24:39.568Z,102084.29
2019-02-24T10:27:13.278Z,102097.30
2019-02-24T10:29:46.447Z,102091.42
2019-02-24T10:32:19.856Z,102098.97
2019-02-24T10:34:52.143Z,102092.72
2019-02-24T10:37:26.221Z,102095.20
2019-02-24T10:39:59.757Z,102100.95
2019-02-24T10:42:32.995Z,102110.04
2019-02-24T10:45:07.936Z,102106.07
2019-02-24T10:47:41.774Z,102108.63
2019-02-24T10:50:14.578Z,102098.02
2019-02-24T10:52:48.081Z,102094.34
2019-02-24T10:55:21.786Z,102089.08
2019-02-24T10:57:54.888Z,102081.47
2019-02-24T11:00:30.212Z,102084.88
2019-02-24T11:03:03.409Z,102084.20
2019-02-24T11:05:37.066Z,102081.50
2019-02-24T11:08:11.914Z,102080.05
2019-02-24T11:10:45.471Z,102072.89
2019-02-24T11:13:18.509Z,102061.30
2019-02-24T11:15:51.716Z,102061.30
2019-02-24T11:18:25.169Z,102065.73
2019-02-24T11:21:00.390Z,102065.73
2019-02-24T11:23:35.161Z,102063.03
2019-02-24T11:26:08.599Z,102068.83
2019-02-24T11:28:41.497Z,102072.01
2019-02-24T11:31:15.295Z,102077.39
2019-02-24T11:33:50.215Z,102066.37
2019-02-24T11:36:23.381Z,102071.88
2019-02-24T11:38:56.884Z,102068.92
2019-02-24T11:41:30.955Z,102067.78
2019-02-24T11:44:03.661Z,102071.82
2019-02-24T11:46:37.272Z,102071.57
2019-02-24T11:49:10.550Z,102067.91
2019-02-24T11:51:43.592Z,102065.95
2019-02-24T11:54:16.678Z,102049.06
2019-02-24T11:56:49.915Z,102052.01
2019-02-24T11:59:24.766Z,102053.89
2019-02-24T12:01:57.866Z,102048.06
2019-02-24T12:04:31.442Z,102038.59
2019-02-24T12:07:04.993Z,102045.89
2019-02-24T12:09:38.228Z,102041.45
2019-02-24T12:12:11.918Z,102055.12
2019-02-24T12:14:45.225Z,102055.12
2019-02-24T12:17:18.457Z,102061.45
2019-02-24T12:19:52.501Z,102075.86
2019-02-24T12:22:25.529Z,102075.86
2019-02-24T12:25:04.716Z,102078.27
2019-02-24T12:27:37.810Z,102065.30
2019-02-24T12:30:11.479Z,102057.63
2019-02-24T12:32:44.856Z,102057.63
2019-02-24T12:35:17.611Z,102057.43
2019-02-24T12:37:50.274Z,102036.41
2019-02-24T12:40:23.616Z,102036.41
2019-02-24T12:42:58.852Z,102042.19
2019-02-24T12:45:32.881Z,102042.19
2019-02-24T12:48:06.278Z,102039.59
2019-02-24T12:50:42.544Z,102038.42
2019-02-24T12:53:16.000Z,102041.45
2019-02-24T12:55:50.212Z,102046.46
2019-02-24T12:58:27.331Z,102048.32
2019-02-24T13:01:04.526Z,102048.39
2019-02-24T13:03:37.949Z,102048.39
2019-02-24T13:06:11.715Z,102040.00
2019-02-24T13:08:45.855Z,102029.93
2019-02-24T13:11:18.956Z,102029.93
2019-02-24T13:13:52.726Z,102025.00
2019-02-24T13:16:26.211Z,102025.00
2019-02-24T13:18:59.549Z,102017.16
2019-02-24T13:21:33.986Z,102020.88
2019-02-24T13:24:07.164Z,102020.88
2019-02-24T13:26:40.448Z,102018.62
2019-02-24T13:29:13.906Z,102021.53
2019-02-24T13:31:47.425Z,102017.56
2019-02-24T13:34:20.139Z,102017.56
2019-02-24T13:36:54.221Z,102013.52
2019-02-24T13:39:29.047Z,102009.20
2019-02-24T13:42:02.187Z,102013.09
2019-02-24T13:44:34.925Z,102005.02
2019-02-24T13:47:08.263Z,102011.30
2019-02-24T13:49:43.028Z,102012.53
2019-02-24T13:52:16.743Z,102010.81
2019-02-24T13:54:50.504Z,102011.91
2019-02-24T13:57:24.387Z,102016.69
2019-02-24T13:59:58.238Z,102011.62
2019-02-24T14:02:31.069Z,102009.73
2019-02-24T14:05:04.395Z,102009.97
2019-02-24T14:07:37.973Z,102007.66
2019-02-24T14:10:12.757Z,102014.45
2019-02-24T14:12:46.394Z,102011.02
2019-02-24T14:15:19.806Z,102013.40
2019-02-24T14:17:53.727Z,102006.22
2019-02-24T14:20:27.576Z,102004.06
2019-02-24T14:23:00.296Z,102006.64
2019-02-24T14:25:33.404Z,102017.52
2019-02-24T14:28:06.795Z,102017.58
2019-02-24T14:30:40.377Z,102021.83
2019-02-24T14:33:13.871Z,102012.31
2019-02-24T14:35:46.548Z,102016.23
2019-02-24T14:38:19.943Z,102024.56
2019-02-24T14:40:53.505Z,102025.61
2019-02-24T14:43:26.899Z,102019.28
2019-02-24T14:46:00.418Z,102022.84
2019-02-24T14:48:35.272Z,102034.13
2019-02-24T14:51:08.366Z,102036.08
2019-02-24T14:53:42.495Z,102024.34
2019-02-24T14:56:15.159Z,102030.21
2019-02-24T14:58:48.532Z,102026.86
2019-02-24T15:01:22.693Z,102026.86
2019-02-24T15:03:55.779Z,102017.79
2019-02-24T15:06:31.454Z,102024.28
2019-02-24T15:09:04.434Z,102013.89
2019-02-24T15:11:40.329Z,102018.20
2019-02-24T15:14:13.752Z,102022.58
2019-02-24T15:16:46.853Z,102024.25
2019-02-24T15:19:19.872Z,102027.38
2019-02-24T15:21:54.212Z,102015.85
2019-02-24T15:24:27.332Z,102012.55
2019-02-24T15:27:01.092Z,102018.82
2019-02-24T15:29:35.824Z,102024.84
2019-02-24T15:32:08.798Z,102022.23
2019-02-24T15:34:42.275Z,102026.66
2019-02-24T15:37:17.072Z,102026.63
2019-02-24T15:39:57.795Z,102027.25
2019-02-24T15:42:41.293Z,102027.13
2019-02-24T15:45:21.673Z,102027.64
2019-02-24T15:48:04.828Z,102029.44
2019-02-24T15:50:43.399Z,102033.06
2019-02-24T15:53:16.443Z,102029.23
2019-02-24T15:55:53.298Z,102023.29
2019-02-24T15:58:30.864Z,102027.13
2019-02-24T16:01:12.592Z,102029.20
2019-02-24T16:03:47.039Z,102023.71
2019-02-24T16:06:20.095Z,102022.47
2019-02-24T16:08:53.204Z,102027.97
2019-02-24T16:11:26.932Z,102025.89
2019-02-24T16:14:01.490Z,102016.99
2019-02-24T16:16:35.589Z,102021.09
2019-02-24T16:19:07.846Z,102023.13
2019-02-24T16:21:40.892Z,102021.28
2019-02-24T16:24:13.944Z,102032.22
2019-02-24T16:26:46.563Z,102031.09
2019-02-24T16:29:19.540Z,102029.89
2019-02-24T16:31:52.188Z,102031.85
2019-02-24T16:34:26.028Z,102029.67
2019-02-24T16:36:58.746Z,102033.02
2019-02-24T16:39:32.079Z,102028.38
2019-02-24T16:42:05.192Z,102026.87
2019-02-24T16:44:38.624Z,102027.03
2019-02-24T16:47:12.104Z,102028.36
2019-02-24T16:49:45.775Z,102024.50
2019-02-24T16:52:19.106Z,102029.25
2019-02-24T16:54:54.171Z,102036.94
2019-02-24T16:57:27.208Z,102033.97
2019-02-24T17:00:01.032Z,102034.73
2019-02-24T17:02:35.597Z,102036.80
2019-02-24T17:05:09.053Z,102040.61
2019-02-24T17:07:41.992Z,102043.19
2019-02-24T17:10:17.116Z,102047.59
2019-02-24T17:12:50.251Z,102046.63
2019-02-24T17:15:23.642Z,102054.25
2019-02-24T17:17:57.509Z,102048.05
2019-02-24T17:20:31.082Z,102052.03
2019-02-24T17:23:04.802Z,102057.84
2019-02-24T17:25:37.472Z,102068.20
2019-02-24T17:28:10.688Z,102069.06
2019-02-24T17:30:43.408Z,102073.50
2019-02-24T17:33:16.124Z,102069.22
2019-02-24T17:35:49.195Z,102075.08
2019-02-24T17:38:23.111Z,102075.78
2019-02-24T17:40:56.780Z,102072.64
2019-02-24T17:43:30.611Z,102076.53
2019-02-24T17:46:04.623Z,102078.98
2019-02-24T17:48:38.139Z,102079.56
2019-02-24T17:51:20.621Z,102078.78
2019-02-24T17:53:47.295Z,102078.55
2019-02-24T17:56:20.331Z,102073.35
2019-02-24T17:58:53.832Z,102067.61
2019-02-24T18:01:28.377Z,102069.63
2019-02-24T18:04:01.023Z,102066.56
2019-02-24T18:06:34.719Z,102062.29
2019-02-24T18:09:08.747Z,102064.72
2019-02-24T18:11:42.287Z,102066.56
2019-02-24T18:14:16.053Z,102074.91
2019-02-24T18:16:49.403Z,102079.95
2019-02-24T18:19:23.217Z,102072.64
2019-02-24T18:21:56.387Z,102078.34
2019-02-24T18:24:29.986Z,102087.45
2019-02-24T18:27:03.202Z,102081.05
2019-02-24T18:29:37.079Z,102074.77
2019-02-24T18:32:10.506Z,102074.16
2019-02-24T18:34:44.124Z,102066.82
2019-02-24T18:37:16.538Z,102066.86
2019-02-24T18:39:52.310Z,102066.16
2019-02-24T18:42:25.425Z,102065.48
2019-02-24T18:44:58.448Z,102055.52
2019-02-24T18:47:31.922Z,102053.20
2019-02-24T18:50:06.056Z,102053.10
2019-02-24T18:52:39.245Z,102047.07
2019-02-24T18:55:12.469Z,102053.91
2019-02-24T18:57:45.505Z,102052.12
2019-02-24T19:00:19.151Z,102057.40
2019-02-24T19:02:54.818Z,102054.08
2019-02-24T19:05:27.732Z,102043.87
2019-02-24T19:08:00.594Z,102034.27
2019-02-24T19:10:33.189Z,102041.98
2019-02-24T19:13:06.692Z,102033.45
2019-02-24T19:15:39.430Z,102040.99
2019-02-24T19:18:12.544Z,102035.20
2019-02-24T19:20:45.263Z,102026.44
2019-02-24T19:23:18.074Z,102027.72
2019-02-24T19:25:51.505Z,102027.22
2019-02-24T19:28:24.993Z,102029.27
2019-02-24T19:30:58.340Z,102033.80
2019-02-24T19:33:32.364Z,102029.98
2019-02-24T19:36:05.761Z,102035.55
2019-02-24T19:38:39.626Z,102033.73
2019-02-24T19:41:13.200Z,102030.75
2019-02-24T19:43:46.737Z,102033.63
2019-02-24T19:46:19.647Z,102035.58
2019-02-24T19:48:52.297Z,102035.82
2019-02-24T19:51:28.331Z,102041.31
2019-02-24T19:54:02.267Z,102040.41
2019-02-24T19:56:34.915Z,102034.51
2019-02-24T19:59:07.923Z,102044.25
2019-02-24T20:01:41.506Z,102045.02
2019-02-24T20:04:16.202Z,102052.55
2019-02-24T20:06:49.874Z,102051.48
2019-02-24T20:09:23.342Z,102053.75
2019-02-24T20:11:56.415Z,102049.48
2019-02-24T20:14:29.566Z,102051.30
2019-02-24T20:17:03.366Z,102053.05
2019-02-24T20:19:37.117Z,102053.48
2019-02-24T20:22:10.849Z,102052.34
2019-02-24T20:24:44.279Z,102055.91
2019-02-24T20:27:17.439Z,102061.85
2019-02-24T20:29:51.253Z,102064.19
2019-02-24T20:32:24.351Z,102065.13
2019-02-24T20:34:57.712Z,102054.34
2019-02-24T20:37:31.147Z,102064.54
2019-02-24T20:40:04.427Z,102060.78
2019-02-24T20:42:37.547Z,102064.47
2019-02-24T20:45:11.965Z,102062.95
2019-02-24T20:47:45.941Z,102067.87
2019-02-24T20:50:19.492Z,102071.44
2019-02-24T20:52:53.039Z,102068.94
2019-02-24T20:55:26.203Z,102076.06
2019-02-24T20:57:59.247Z,102071.22
2019-02-24T21:00:34.895Z,102075.55
2019-02-24T21:03:08.645Z,102076.62
2019-02-24T21:05:41.439Z,102074.66
2019-02-24T21:08:14.858Z,102086.47
2019-02-24T21:10:47.678Z,102095.33
2019-02-24T21:13:21.373Z,102095.70
2019-02-24T21:15:54.471Z,102089.95
2019-02-24T21:18:27.165Z,102090.23
2019-02-24T21:21:00.743Z,102096.05
2019-02-24T21:23:33.860Z,102095.92
2019-02-24T21:26:07.062Z,102099.61
2019-02-24T21:28:40.225Z,102102.67
2019-02-24T21:31:13.436Z,102094.67
2019-02-24T21:33:46.892Z,102096.55
2019-02-24T21:36:20.709Z,102105.90
2019-02-24T21:38:54.287Z,102106.12
2019-02-24T21:41:27.357Z,102110.83
2019-02-24T21:44:00.699Z,102105.63
2019-02-24T21:46:34.547Z,102109.83
2019-02-24T21:49:08.280Z,102117.36
2019-02-24T21:51:41.328Z,102121.24
2019-02-24T21:54:15.583Z,102118.22
2019-02-24T21:56:49.027Z,102122.64
2019-02-24T21:59:23.522Z,102122.86
2019-02-24T22:01:57.034Z,102120.92
2019-02-24T22:04:30.334Z,102119.14
2019-02-24T22:07:03.755Z,102122.51
2019-02-24T22:09:37.343Z,102120.44
2019-02-24T22:12:11.227Z,102115.85
2019-02-24T22:14:45.109Z,102112.13
2019-02-24T22:17:18.125Z,102118.13
2019-02-24T22:19:51.225Z,102126.20
2019-02-24T22:22:24.258Z,102125.94
2019-02-24T22:24:57.291Z,102125.69
2019-02-24T22:27:30.676Z,102134.48
2019-02-24T22:30:03.660Z,102138.15
2019-02-24T22:32:38.432Z,102137.34
2019-02-24T22:35:12.311Z,102130.63
2019-02-24T22:37:45.290Z,102131.53
2019-02-24T22:40:17.539Z,102129.22
2019-02-24T22:42:53.102Z,102134.34
2019-02-24T22:45:25.687Z,102129.08
2019-02-24T22:47:59.002Z,102130.98
2019-02-24T22:50:32.086Z,102140.12
2019-02-24T22:53:04.768Z,102141.59
2019-02-24T22:55:37.506Z,102138.55
2019-02-24T22:58:10.322Z,102139.90
2019-02-24T23:01:09.861Z,102138.86
2019-02-24T23:03:46.058Z,102137.66
2019-02-24T23:06:19.590Z,102136.94
2019-02-24T23:08:53.596Z,102133.67
2019-02-24T23:11:26.944Z,102134.53
2019-02-24T23:14:00.709Z,102133.50
2019-02-24T23:16:33.468Z,102133.27
2019-02-24T23:19:06.864Z,102129.75
2019-02-24T23:21:39.941Z,102132.73
2019-02-24T23:24:13.279Z,102130.59
2019-02-24T23:26:46.711Z,102118.48
2019-02-24T23:29:20.260Z,102114.56
2019-02-24T23:31:54.065Z,102111.85
2019-02-24T23:34:27.105Z,102116.97
2019-02-24T23:37:00.457Z,102119.72
2019-02-24T23:39:34.009Z,102117.17
2019-02-24T23:42:07.441Z,102120.16
2019-02-24T23:44:41.273Z,102124.16
2019-02-24T23:47:14.348Z,102111.08
2019-02-24T23:49:47.766Z,102115.63
2019-02-24T23:52:20.364Z,102107.27
2019-02-24T23:54:53.380Z,102103.47
2019-02-24T23:57:27.059Z,102103.55
